Hamilton Airport


Codes: YHML/HLT
Name: Hamilton Airport
City:
Country: Australia
Elevation: 803 ft.
Wikipedia:

Photos at Hamilton Airport


   Photos courtesy of SpottingLog. You can add your own sightings and photos by signing up for a free trial today.



No photos found.

Weather at Hamilton Airport


Time (UTC)DescriptionTempratureWindCloud coverageVisibilityPressureHumidity
21-Jun-2024 12:00Few Clouds5°C4 mph, S12%10000m1029hPa76%
21-Jun-2024 15:00Scattered Clouds4°C4 mph, S38%10000m1029hPa87%
21-Jun-2024 18:00Broken Clouds5°C2 mph, SE51%10000m1030hPa87%
21-Jun-2024 21:00Overcast Clouds8°C4 mph, SE100%10000m1031hPa70%
22-Jun-2024 00:00Broken Clouds10°C4 mph, SE80%10000m1032hPa63%
22-Jun-2024 03:00Clear Sky12°C7 mph, SE1%10000m1030hPa54%
22-Jun-2024 06:00Clear Sky11°C4 mph, SE0%10000m1029hPa58%
22-Jun-2024 09:00Clear Sky5°C7 mph, SE0%10000m1030hPa85%
22-Jun-2024 12:00Clear Sky4°C7 mph, E0%10000m1030hPa91%
22-Jun-2024 15:00Clear Sky3°C7 mph, E0%10000m1029hPa93%
22-Jun-2024 18:00Clear Sky3°C4 mph, NE0%10000m1028hPa92%
22-Jun-2024 21:00Clear Sky2°C4 mph, NE0%10000m1027hPa92%
23-Jun-2024 00:00Clear Sky7°C4 mph, N0%10000m1026hPa74%
23-Jun-2024 03:00Clear Sky12°C11 mph, N0%10000m1023hPa53%
23-Jun-2024 06:00Clear Sky11°C9 mph, N2%10000m1022hPa57%
23-Jun-2024 09:00Overcast Clouds5°C7 mph, N87%10000m1022hPa78%
23-Jun-2024 12:00Overcast Clouds4°C7 mph, N94%10000m1021hPa82%
23-Jun-2024 15:00Overcast Clouds5°C9 mph, N100%10000m1019hPa77%
23-Jun-2024 18:00Overcast Clouds4°C11 mph, N100%10000m1017hPa80%
23-Jun-2024 21:00Overcast Clouds5°C11 mph, N100%10000m1016hPa79%
24-Jun-2024 00:00Overcast Clouds8°C16 mph, N100%10000m1015hPa65%
24-Jun-2024 03:00Overcast Clouds12°C18 mph, N95%10000m1011hPa50%
24-Jun-2024 06:00Overcast Clouds12°C16 mph, N96%10000m1010hPa53%
24-Jun-2024 09:00Overcast Clouds9°C11 mph, N100%10000m1010hPa57%
24-Jun-2024 12:00Overcast Clouds8°C18 mph, N98%10000m1009hPa71%
24-Jun-2024 15:00Overcast Clouds9°C16 mph, N100%10000m1008hPa73%
24-Jun-2024 18:00Light Rain7°C13 mph, N99%10000m1008hPa90%
24-Jun-2024 21:00Overcast Clouds6°C11 mph, N95%10000m1008hPa93%
25-Jun-2024 00:00Overcast Clouds8°C13 mph, N98%10000m1009hPa88%
25-Jun-2024 03:00Light Rain10°C16 mph, NW94%10000m1008hPa72%
25-Jun-2024 06:00Light Rain9°C13 mph, N82%10000m1007hPa81%
25-Jun-2024 09:00Light Rain6°C9 mph, N98%10000m1009hPa91%
25-Jun-2024 12:00Broken Clouds6°C11 mph, N71%10000m1009hPa86%
25-Jun-2024 15:00Broken Clouds6°C16 mph, N62%10000m1008hPa82%
25-Jun-2024 18:00Broken Clouds6°C16 mph, N62%10000m1007hPa81%
25-Jun-2024 21:00Light Rain5°C16 mph, N100%10000m1008hPa94%
26-Jun-2024 00:00Overcast Clouds7°C16 mph, NW93%10000m1009hPa90%
26-Jun-2024 03:00Broken Clouds11°C18 mph, NW71%10000m1009hPa70%
26-Jun-2024 06:00Light Rain10°C18 mph, NW86%10000m1009hPa69%
26-Jun-2024 09:00Broken Clouds8°C13 mph, NW63%10000m1011hPa75%